createdAt,value
2022-11-29T00:02:27.825Z,5.70
2022-11-29T00:05:02.386Z,5.70
2022-11-29T00:07:29.545Z,5.70
2022-11-29T00:10:03.562Z,5.70
2022-11-29T00:12:30.977Z,5.70
2022-11-29T00:15:04.687Z,5.70
2022-11-29T00:17:32.549Z,5.80
2022-11-29T00:20:06.452Z,5.70
2022-11-29T00:22:40.381Z,5.70
2022-11-29T00:25:08.789Z,5.70
2022-11-29T00:27:42.552Z,5.60
2022-11-29T00:30:10.293Z,5.70
2022-11-29T00:32:44.892Z,5.60
2022-11-29T00:35:12.791Z,5.60
2022-11-29T00:37:46.369Z,5.60
2022-11-29T00:40:13.507Z,5.60
2022-11-29T00:42:41.347Z,5.50
2022-11-29T00:45:16.052Z,5.50
2022-11-29T00:47:49.352Z,5.50
2022-11-29T00:50:23.387Z,5.50
2022-11-29T00:52:57.289Z,5.50
2022-11-29T00:55:31.418Z,5.50
2022-11-29T00:58:05.425Z,5.40
2022-11-29T01:00:52.362Z,5.40
2022-11-29T01:03:26.377Z,5.40
2022-11-29T01:06:00.162Z,5.30
2022-11-29T01:08:34.567Z,5.40
2022-11-29T01:11:14.727Z,5.40
2022-11-29T01:13:49.357Z,5.40
2022-11-29T01:16:24.453Z,5.40
2022-11-29T01:18:58.334Z,5.40
2022-11-29T01:21:32.388Z,5.40
2022-11-29T01:24:07.392Z,5.40
2022-11-29T01:26:34.883Z,5.50
2022-11-29T01:29:08.558Z,5.50
2022-11-29T01:31:37.047Z,5.60
2022-11-29T01:34:13.374Z,5.60
2022-11-29T01:36:47.521Z,5.60
2022-11-29T01:39:21.405Z,5.70
2022-11-29T01:41:48.550Z,5.70
2022-11-29T01:44:22.282Z,5.70
2022-11-29T01:46:50.318Z,5.70
2022-11-29T01:49:30.372Z,5.80
2022-11-29T01:52:08.664Z,5.80
2022-11-29T01:54:52.367Z,5.80
2022-11-29T01:57:20.990Z,5.90
2022-11-29T02:00:03.898Z,5.90
2022-11-29T02:02:50.430Z,5.90
2022-11-29T02:05:19.141Z,5.90
2022-11-29T02:07:58.481Z,5.90
2022-11-29T02:10:42.896Z,5.90
2022-11-29T02:13:42.753Z,5.90
2022-11-29T02:16:32.998Z,5.90
2022-11-29T02:19:25.831Z,5.90
2022-11-29T02:21:59.569Z,5.90
2022-11-29T02:24:57.507Z,5.90
2022-11-29T02:28:08.313Z,5.90
2022-11-29T02:31:01.686Z,5.90
2022-11-29T02:34:03.387Z,6.00
2022-11-29T02:36:50.389Z,6.00
2022-11-29T02:40:04.466Z,6.00
2022-11-29T02:43:12.371Z,6.00
2022-11-29T02:46:15.409Z,6.00
2022-11-29T02:49:11.765Z,6.00
2022-11-29T02:51:55.012Z,6.00
2022-11-29T02:54:49.422Z,6.00
2022-11-29T02:58:06.975Z,6.00
2022-11-29T03:00:45.220Z,6.00
2022-11-29T03:03:27.496Z,6.00
2022-11-29T03:06:13.045Z,6.00
2022-11-29T03:08:54.921Z,6.00
2022-11-29T03:12:00.386Z,6.00
2022-11-29T03:14:35.385Z,6.00
2022-11-29T03:17:14.366Z,6.00
2022-11-29T03:20:07.416Z,5.90
2022-11-29T03:22:48.025Z,5.90
2022-11-29T03:25:40.720Z,5.90
2022-11-29T03:28:13.830Z,5.90
2022-11-29T03:30:56.618Z,6.00
2022-11-29T03:34:06.385Z,6.00
2022-11-29T03:36:58.600Z,6.00
2022-11-29T03:40:04.457Z,6.00
2022-11-29T03:42:50.715Z,6.00
2022-11-29T03:45:55.592Z,6.00
2022-11-29T03:48:32.027Z,6.10
2022-11-29T03:51:23.851Z,6.00
2022-11-29T03:54:03.037Z,6.00
2022-11-29T03:56:47.398Z,6.00
2022-11-29T03:59:51.608Z,6.00
2022-11-29T04:03:06.266Z,6.00
2022-11-29T04:06:29.442Z,6.00
2022-11-29T04:09:24.415Z,6.00
2022-11-29T04:12:03.071Z,6.00
2022-11-29T04:14:48.420Z,5.90
2022-11-29T04:17:15.840Z,6.00
2022-11-29T04:20:19.471Z,6.00
2022-11-29T04:23:18.537Z,5.90
2022-11-29T04:26:01.131Z,6.00
2022-11-29T04:28:46.316Z,6.00
2022-11-29T04:31:28.489Z,6.00
2022-11-29T04:34:26.376Z,6.00
2022-11-29T04:37:11.486Z,6.00
2022-11-29T04:39:57.542Z,6.00
2022-11-29T04:42:53.226Z,6.00
2022-11-29T04:45:49.465Z,6.00
2022-11-29T04:48:32.240Z,6.00
2022-11-29T04:51:30.656Z,6.00
2022-11-29T04:54:30.341Z,5.90
2022-11-29T04:57:16.313Z,5.90
2022-11-29T04:59:59.421Z,5.90
2022-11-29T05:02:42.601Z,5.90
2022-11-29T05:05:38.483Z,5.90
2022-11-29T05:08:42.356Z,6.00
2022-11-29T05:11:55.608Z,6.00
2022-11-29T05:15:07.400Z,6.00
2022-11-29T05:17:57.476Z,6.00
2022-11-29T05:20:42.656Z,5.90
2022-11-29T05:23:19.396Z,5.90
2022-11-29T05:26:01.434Z,5.90
2022-11-29T05:29:05.489Z,5.90
2022-11-29T05:31:39.433Z,5.90
2022-11-29T05:34:43.491Z,6.00
2022-11-29T05:37:26.395Z,6.00
2022-11-29T05:40:37.420Z,6.00
2022-11-29T05:43:23.109Z,6.00
2022-11-29T05:46:23.422Z,5.90
2022-11-29T05:49:23.453Z,5.90
2022-11-29T05:52:27.361Z,5.90
2022-11-29T05:55:38.446Z,5.90
2022-11-29T05:58:45.982Z,5.90
2022-11-29T06:01:33.521Z,5.90
2022-11-29T06:04:40.304Z,5.90
2022-11-29T06:07:38.673Z,5.90
2022-11-29T06:10:30.347Z,5.90
2022-11-29T06:13:19.267Z,5.90
2022-11-29T06:16:05.447Z,5.90
2022-11-29T06:18:54.526Z,5.90
2022-11-29T06:21:53.477Z,5.90
2022-11-29T06:24:58.855Z,5.90
2022-11-29T06:28:11.409Z,5.90
2022-11-29T06:31:08.618Z,5.80
2022-11-29T06:34:11.417Z,5.80
2022-11-29T06:36:51.529Z,5.70
2022-11-29T06:39:19.294Z,5.70
2022-11-29T06:41:54.399Z,5.70
2022-11-29T06:44:21.784Z,5.70
2022-11-29T06:46:58.713Z,5.70
2022-11-29T06:49:37.318Z,5.70
2022-11-29T06:52:27.442Z,5.80
2022-11-29T06:55:09.621Z,5.80
2022-11-29T06:58:12.527Z,5.70
2022-11-29T07:01:33.621Z,5.80
2022-11-29T07:04:17.277Z,5.80
2022-11-29T07:06:51.443Z,5.80
2022-11-29T07:09:29.430Z,5.80
2022-11-29T07:11:56.922Z,5.80
2022-11-29T07:14:31.482Z,5.80
2022-11-29T07:17:24.429Z,5.80
2022-11-29T07:20:03.825Z,5.80
2022-11-29T07:22:56.346Z,5.70
2022-11-29T07:25:45.461Z,5.70
2022-11-29T07:28:40.692Z,5.60
2022-11-29T07:31:53.858Z,5.60
2022-11-29T07:34:57.489Z,5.60
2022-11-29T07:38:16.599Z,5.60
2022-11-29T07:41:01.470Z,5.60
2022-11-29T07:44:01.870Z,5.50
2022-11-29T07:46:29.363Z,5.50
2022-11-29T07:49:03.684Z,5.50
2022-11-29T07:51:32.506Z,5.60
2022-11-29T07:54:06.430Z,5.60
2022-11-29T07:56:40.419Z,5.60
2022-11-29T07:59:13.055Z,5.60
2022-11-29T08:01:53.427Z,5.60
2022-11-29T08:04:34.384Z,5.60
2022-11-29T08:07:01.772Z,5.60
2022-11-29T08:09:35.439Z,5.60
2022-11-29T08:12:09.512Z,5.60
2022-11-29T08:14:36.846Z,5.60
2022-11-29T08:17:11.695Z,5.60
2022-11-29T08:19:38.821Z,5.60
2022-11-29T08:22:12.357Z,5.70
2022-11-29T08:24:40.056Z,5.70
2022-11-29T08:27:14.333Z,5.70
2022-11-29T08:29:41.712Z,5.70
2022-11-29T08:32:16.439Z,5.70
2022-11-29T08:34:44.061Z,5.70
2022-11-29T08:37:18.666Z,5.70
2022-11-29T08:39:52.266Z,5.80
2022-11-29T08:42:19.503Z,5.90
2022-11-29T08:44:54.431Z,5.90
2022-11-29T08:47:37.351Z,6.00
2022-11-29T08:50:15.362Z,6.10
2022-11-29T08:53:06.998Z,6.10
2022-11-29T08:55:49.861Z,6.20
2022-11-29T08:58:23.382Z,6.10
2022-11-29T09:00:57.453Z,6.10
2022-11-29T09:03:52.121Z,6.10
2022-11-29T09:06:26.445Z,6.10
2022-11-29T09:08:59.306Z,6.10
2022-11-29T09:11:35.494Z,6.00
2022-11-29T09:14:06.425Z,6.00
2022-11-29T09:16:45.909Z,6.00
2022-11-29T09:19:15.015Z,6.00
2022-11-29T09:21:48.346Z,6.00
2022-11-29T09:24:16.229Z,6.00
2022-11-29T09:26:53.391Z,6.00
2022-11-29T09:29:25.352Z,6.00
2022-11-29T09:32:00.510Z,6.00
2022-11-29T09:34:28.034Z,6.00
2022-11-29T09:37:01.414Z,6.00
2022-11-29T09:39:28.502Z,6.00
2022-11-29T09:42:40.477Z,6.00
2022-11-29T09:45:20.417Z,6.00
2022-11-29T09:47:54.397Z,6.00
2022-11-29T09:50:41.459Z,6.00
2022-11-29T09:53:36.570Z,6.10
2022-11-29T09:56:27.445Z,6.10
2022-11-29T09:59:09.925Z,6.10
2022-11-29T10:02:01.420Z,6.10
2022-11-29T10:04:41.847Z,6.10
2022-11-29T10:07:34.672Z,6.30
2022-11-29T10:10:27.386Z,6.40
2022-11-29T10:13:07.937Z,6.60
2022-11-29T10:15:49.470Z,6.80
2022-11-29T10:18:33.684Z,6.90
2022-11-29T10:21:19.450Z,7.10
2022-11-29T10:23:54.039Z,7.20
2022-11-29T10:26:35.007Z,7.40
2022-11-29T10:29:02.635Z,7.40
2022-11-29T10:31:42.410Z,7.40
2022-11-29T10:34:22.996Z,7.40
2022-11-29T10:37:09.389Z,7.30
2022-11-29T10:40:08.032Z,7.30
2022-11-29T10:42:56.695Z,7.20
2022-11-29T10:45:36.567Z,7.30
2022-11-29T10:48:17.355Z,7.30
2022-11-29T10:50:53.390Z,7.30
2022-11-29T10:53:33.003Z,7.30
2022-11-29T10:56:23.461Z,7.30
2022-11-29T10:59:10.400Z,7.40
2022-11-29T11:01:47.644Z,7.40
2022-11-29T11:04:40.307Z,7.30
2022-11-29T11:07:07.563Z,7.30
2022-11-29T11:09:54.517Z,7.20
2022-11-29T11:12:30.727Z,7.20
2022-11-29T11:15:36.472Z,7.10
2022-11-29T11:18:07.236Z,7.10
2022-11-29T11:20:48.683Z,7.10
2022-11-29T11:23:37.542Z,7.10
2022-11-29T11:26:11.993Z,7.10
2022-11-29T11:28:54.468Z,7.10
2022-11-29T11:31:38.732Z,7.00
2022-11-29T11:34:36.898Z,7.00
2022-11-29T11:37:23.526Z,7.00
2022-11-29T11:39:54.369Z,7.00
2022-11-29T11:42:44.858Z,7.00
2022-11-29T11:45:12.051Z,7.00
2022-11-29T11:47:53.443Z,6.90
2022-11-29T11:50:34.492Z,6.80
2022-11-29T11:53:42.433Z,6.80
2022-11-29T11:56:19.501Z,6.70
2022-11-29T11:58:58.682Z,6.70
2022-11-29T12:01:50.838Z,6.70
2022-11-29T12:04:51.582Z,6.70
2022-11-29T12:08:06.597Z,6.70
2022-11-29T12:10:37.440Z,6.70
2022-11-29T12:13:05.653Z,6.70
2022-11-29T12:15:52.555Z,6.60
2022-11-29T12:18:39.092Z,6.60
2022-11-29T12:21:19.493Z,6.60
2022-11-29T12:24:31.388Z,6.50
2022-11-29T12:27:04.620Z,6.60
2022-11-29T12:29:42.454Z,6.60
2022-11-29T12:32:31.383Z,6.70
2022-11-29T12:35:07.133Z,6.70
2022-11-29T12:38:04.568Z,6.70
2022-11-29T12:40:53.332Z,6.70
2022-11-29T12:43:57.412Z,6.70
2022-11-29T12:46:29.758Z,6.80
2022-11-29T12:49:22.370Z,6.80
2022-11-29T12:52:20.926Z,6.80
2022-11-29T12:55:14.533Z,6.70
2022-11-29T12:58:08.742Z,6.70
2022-11-29T13:01:15.521Z,6.60
2022-11-29T13:04:29.408Z,6.60
2022-11-29T13:07:14.353Z,6.60
2022-11-29T13:10:21.448Z,6.60
2022-11-29T13:12:59.672Z,6.60
2022-11-29T13:15:50.962Z,6.60
2022-11-29T13:18:38.662Z,6.60
2022-11-29T13:21:20.737Z,6.50
2022-11-29T13:24:09.525Z,6.60
2022-11-29T13:26:47.503Z,6.60
2022-11-29T13:29:17.865Z,6.60
2022-11-29T13:31:53.424Z,6.60
2022-11-29T13:34:36.874Z,6.60
2022-11-29T13:37:29.528Z,6.60
2022-11-29T13:40:05.958Z,6.60
2022-11-29T13:42:54.618Z,6.70
2022-11-29T13:45:52.493Z,6.60
2022-11-29T13:48:30.008Z,6.60
2022-11-29T13:51:04.662Z,6.60
2022-11-29T13:53:48.428Z,6.60
2022-11-29T13:56:52.452Z,6.60
2022-11-29T13:59:28.131Z,6.60
2022-11-29T14:02:03.380Z,6.60
2022-11-29T14:04:45.242Z,6.70
2022-11-29T14:07:25.618Z,6.70
2022-11-29T14:10:14.543Z,6.70
2022-11-29T14:12:58.458Z,6.70
2022-11-29T14:15:32.339Z,6.70
2022-11-29T14:18:09.437Z,6.70
2022-11-29T14:20:46.543Z,6.80
2022-11-29T14:23:22.728Z,6.80
2022-11-29T14:26:00.162Z,6.70
2022-11-29T14:28:40.563Z,6.70
2022-11-29T14:31:15.706Z,6.70
2022-11-29T14:33:52.135Z,6.70
2022-11-29T14:36:38.632Z,6.80
2022-11-29T14:39:13.992Z,6.70
2022-11-29T14:42:06.566Z,6.70
2022-11-29T14:44:42.941Z,6.70
2022-11-29T14:47:38.445Z,6.70
2022-11-29T14:50:09.766Z,6.80
2022-11-29T14:52:51.632Z,6.70
2022-11-29T14:55:22.311Z,6.70
2022-11-29T14:58:10.539Z,6.60
2022-11-29T15:01:11.384Z,6.60
2022-11-29T15:03:46.928Z,6.60
2022-11-29T15:06:22.601Z,6.60
2022-11-29T15:09:15.185Z,6.50
2022-11-29T15:12:04.577Z,6.50
2022-11-29T15:14:47.884Z,6.50
2022-11-29T15:17:52.820Z,6.50
2022-11-29T15:21:02.529Z,6.40
2022-11-29T15:23:45.589Z,6.40
2022-11-29T15:26:21.163Z,6.40
2022-11-29T15:28:55.590Z,6.40
2022-11-29T15:31:29.536Z,6.40
2022-11-29T15:34:03.579Z,6.30
2022-11-29T15:36:37.776Z,6.30
2022-11-29T15:39:05.102Z,6.30
2022-11-29T15:41:42.440Z,6.30
2022-11-29T15:44:23.999Z,6.30
2022-11-29T15:46:57.469Z,6.30
2022-11-29T15:49:27.904Z,6.30
2022-11-29T15:52:06.471Z,6.30
2022-11-29T15:54:44.542Z,6.30
2022-11-29T15:57:24.809Z,6.30
2022-11-29T16:00:05.626Z,6.30
2022-11-29T16:02:44.939Z,6.30
2022-11-29T16:05:30.372Z,6.30
2022-11-29T16:08:02.729Z,6.40
2022-11-29T16:10:39.779Z,6.40
2022-11-29T16:13:27.201Z,6.40
2022-11-29T16:16:18.673Z,6.40
2022-11-29T16:18:48.288Z,6.40
2022-11-29T16:21:33.500Z,6.40
2022-11-29T16:24:13.822Z,6.40
2022-11-29T16:26:52.550Z,6.40
2022-11-29T16:29:28.556Z,6.40
2022-11-29T16:32:02.725Z,6.40
2022-11-29T16:34:40.560Z,6.40
2022-11-29T16:37:21.329Z,6.40
2022-11-29T16:39:57.649Z,6.40
2022-11-29T16:42:35.465Z,6.30
2022-11-29T16:45:03.120Z,6.30
2022-11-29T16:48:08.614Z,6.30
2022-11-29T16:50:36.234Z,6.30
2022-11-29T16:53:47.430Z,6.20
2022-11-29T16:56:17.610Z,6.20
2022-11-29T16:59:20.945Z,6.20
2022-11-29T17:02:12.623Z,6.20
2022-11-29T17:04:46.818Z,6.20
2022-11-29T17:07:34.811Z,6.20
2022-11-29T17:10:09.695Z,6.20
2022-11-29T17:12:47.803Z,6.20
2022-11-29T17:15:15.934Z,6.20
2022-11-29T17:17:50.536Z,6.10
2022-11-29T17:20:17.845Z,6.10
2022-11-29T17:22:51.455Z,6.10
2022-11-29T17:25:19.011Z,6.10
2022-11-29T17:27:52.468Z,6.10
2022-11-29T17:30:20.081Z,6.10
2022-11-29T17:36:48.615Z,6.00
2022-11-29T17:39:20.832Z,6.10
2022-11-29T17:41:54.688Z,6.10
2022-11-29T17:44:22.861Z,6.10
2022-11-29T17:46:57.560Z,6.10
2022-11-29T17:49:31.474Z,6.10
2022-11-29T17:51:59.134Z,6.10
2022-11-29T17:54:32.523Z,6.00
2022-11-29T17:57:04.824Z,6.00
2022-11-29T17:59:38.705Z,6.00
2022-11-29T18:02:21.514Z,5.90
2022-11-29T18:05:03.890Z,5.90
2022-11-29T18:07:37.556Z,5.90
2022-11-29T18:10:11.947Z,5.90
2022-11-29T18:12:46.759Z,5.90
2022-11-29T18:15:14.077Z,5.90
2022-11-29T18:17:47.635Z,5.90
2022-11-29T18:20:15.400Z,5.90
2022-11-29T18:22:49.605Z,5.90
2022-11-29T18:25:38.249Z,5.80
2022-11-29T18:28:11.057Z,5.80
2022-11-29T18:30:38.471Z,5.70
2022-11-29T18:33:12.646Z,5.70
2022-11-29T18:35:49.647Z,5.70
2022-11-29T18:38:17.301Z,5.70
2022-11-29T18:40:52.606Z,5.70
2022-11-29T18:43:20.105Z,5.70
2022-11-29T18:45:54.635Z,5.80
2022-11-29T18:48:28.615Z,5.80
2022-11-29T18:50:55.934Z,5.80
2022-11-29T18:53:29.895Z,5.90
2022-11-29T18:56:11.575Z,5.90
2022-11-29T18:58:39.285Z,5.90
2022-11-29T19:01:34.779Z,5.90
2022-11-29T19:04:10.539Z,5.90
2022-11-29T19:06:44.711Z,5.90
2022-11-29T19:09:22.598Z,5.80
2022-11-29T19:11:50.926Z,5.80
2022-11-29T19:14:28.562Z,5.70
2022-11-29T19:16:56.050Z,5.70
2022-11-29T19:19:31.901Z,5.70
2022-11-29T19:21:59.611Z,5.60
2022-11-29T19:24:33.639Z,5.60
2022-11-29T19:27:01.849Z,5.50
2022-11-29T19:29:39.607Z,5.50
2022-11-29T19:32:08.685Z,5.50
2022-11-29T19:34:42.911Z,5.40
2022-11-29T19:37:10.255Z,5.40
2022-11-29T19:39:44.967Z,5.30
2022-11-29T19:42:12.984Z,5.30
2022-11-29T19:45:16.468Z,5.20
2022-11-29T19:47:34.585Z,5.20
2022-11-29T19:50:08.593Z,5.10
2022-11-29T19:52:35.936Z,5.10
2022-11-29T19:55:09.595Z,5.00
2022-11-29T19:57:37.529Z,5.00
2022-11-29T20:00:13.891Z,5.00
2022-11-29T20:02:47.766Z,4.90
2022-11-29T20:05:27.599Z,4.90
2022-11-29T20:08:01.682Z,4.90
2022-11-29T20:10:29.571Z,4.80
2022-11-29T20:13:03.570Z,4.70
2022-11-29T20:15:31.208Z,4.70
2022-11-29T20:18:06.031Z,4.70
2022-11-29T20:20:40.619Z,4.70
2022-11-29T20:23:15.689Z,4.70
2022-11-29T20:25:54.610Z,4.60
2022-11-29T20:28:22.430Z,4.60
2022-11-29T20:30:49.803Z,4.60
2022-11-29T20:33:29.830Z,4.60
2022-11-29T20:36:31.740Z,4.60
2022-11-29T20:39:29.970Z,4.60
2022-11-29T20:42:32.252Z,4.60
2022-11-29T20:45:08.895Z,4.60
2022-11-29T20:47:36.190Z,4.60
2022-11-29T20:50:11.910Z,4.60
2022-11-29T20:52:44.139Z,4.60
2022-11-29T20:55:17.794Z,4.60
2022-11-29T20:57:54.316Z,4.60
2022-11-29T21:00:23.116Z,4.60
2022-11-29T21:03:03.537Z,4.50
2022-11-29T21:05:38.532Z,4.50
2022-11-29T21:08:12.901Z,4.50
2022-11-29T21:10:40.790Z,4.50
2022-11-29T21:13:15.523Z,4.50
2022-11-29T21:15:51.955Z,4.60
2022-11-29T21:18:23.678Z,4.60
2022-11-29T21:21:26.640Z,4.60
2022-11-29T21:24:47.938Z,4.60
2022-11-29T21:27:21.577Z,4.60
2022-11-29T21:29:55.631Z,4.60
2022-11-29T21:32:25.705Z,4.60
2022-11-29T21:34:59.660Z,4.60
2022-11-29T21:37:30.205Z,4.70
2022-11-29T21:40:04.664Z,4.70
2022-11-29T21:42:32.109Z,4.70
2022-11-29T21:45:09.289Z,4.70
2022-11-29T21:47:44.837Z,4.70
2022-11-29T21:50:22.583Z,4.70
2022-11-29T21:52:52.675Z,4.70
2022-11-29T21:55:31.700Z,4.70
2022-11-29T21:57:59.583Z,4.70
2022-11-29T22:00:37.409Z,4.80
2022-11-29T22:03:11.817Z,4.80
2022-11-29T22:05:45.814Z,4.80
2022-11-29T22:08:15.656Z,4.90
2022-11-29T22:10:49.788Z,4.90
2022-11-29T22:13:17.186Z,4.90
2022-11-29T22:15:51.633Z,4.90
2022-11-29T22:18:19.063Z,4.90
2022-11-29T22:20:54.819Z,4.90
2022-11-29T22:23:22.450Z,4.90
2022-11-29T22:25:56.461Z,4.90
2022-11-29T22:28:23.627Z,4.90
2022-11-29T22:30:57.699Z,4.90
2022-11-29T22:33:32.002Z,4.90
2022-11-29T22:36:06.866Z,4.90
2022-11-29T22:38:40.630Z,4.90
2022-11-29T22:41:10.630Z,4.90
2022-11-29T22:43:45.655Z,4.90
2022-11-29T22:46:14.897Z,4.90
2022-11-29T22:48:51.610Z,4.90
2022-11-29T22:51:27.423Z,4.90
2022-11-29T22:54:04.071Z,5.00
2022-11-29T22:56:33.880Z,5.00
2022-11-29T22:59:09.088Z,5.00
2022-11-29T23:01:59.890Z,5.00
2022-11-29T23:04:33.752Z,4.90
2022-11-29T23:07:01.253Z,4.90
2022-11-29T23:09:34.803Z,4.90
2022-11-29T23:12:02.104Z,4.80
2022-11-29T23:14:35.523Z,4.80
2022-11-29T23:17:09.607Z,4.70
2022-11-29T23:19:43.892Z,4.70
2022-11-29T23:22:11.732Z,4.70
2022-11-29T23:24:47.879Z,4.70
2022-11-29T23:27:15.233Z,4.70
2022-11-29T23:29:50.697Z,4.70
2022-11-29T23:32:18.048Z,4.70
2022-11-29T23:34:51.638Z,4.70
2022-11-29T23:37:19.040Z,4.80
2022-11-29T23:39:54.602Z,4.80
2022-11-29T23:42:29.207Z,4.90
2022-11-29T23:44:56.703Z,4.90
2022-11-29T23:47:30.806Z,4.90
2022-11-29T23:49:58.535Z,4.90
2022-11-29T23:52:32.613Z,4.90
2022-11-29T23:55:00.167Z,4.90
2022-11-29T23:57:35.845Z,5.00
